createdAt,value
2023-05-14T00:04:12.604Z,13.28
2023-05-14T00:09:14.382Z,13.61
2023-05-14T00:14:16.234Z,13.76
2023-05-14T00:19:18.133Z,13.83
2023-05-14T00:24:20.035Z,13.19
2023-05-14T00:29:21.778Z,13.15
2023-05-14T00:34:23.568Z,13.35
2023-05-14T00:39:25.393Z,13.54
2023-05-14T00:44:27.245Z,13.12
2023-05-14T00:49:29.392Z,13.53
2023-05-14T00:54:31.951Z,13.48
2023-05-14T00:59:34.268Z,13.08
2023-05-14T01:04:37.734Z,12.94
2023-05-14T01:09:54.946Z,11.63
2023-05-14T01:15:16.428Z,12.48
2023-05-14T01:20:18.463Z,12.36
2023-05-14T01:25:20.401Z,12.83
2023-05-14T01:30:54.628Z,13.21
2023-05-14T01:35:56.770Z,13.40
2023-05-14T01:41:00.143Z,11.18
2023-05-14T01:46:02.164Z,12.61
2023-05-14T01:51:04.271Z,12.96
2023-05-14T01:56:06.243Z,12.42
2023-05-14T02:01:08.183Z,12.58
2023-05-14T02:06:09.931Z,12.89
2023-05-14T02:11:11.681Z,12.73
2023-05-14T02:16:14.045Z,13.08
2023-05-14T02:21:15.933Z,12.83
2023-05-14T02:26:17.868Z,12.66
2023-05-14T02:31:19.692Z,13.13
2023-05-14T02:36:21.492Z,13.20
2023-05-14T02:41:23.347Z,12.89
2023-05-14T02:46:27.025Z,12.04
2023-05-14T02:51:30.166Z,11.62
2023-05-14T02:56:31.923Z,11.31
2023-05-14T03:01:33.667Z,11.74
2023-05-14T03:06:36.008Z,12.46
2023-05-14T03:11:37.765Z,12.09
2023-05-14T03:16:42.322Z,12.05
2023-05-14T03:21:44.499Z,12.13
2023-05-14T03:26:46.360Z,12.12
2023-05-14T03:31:49.933Z,11.52
2023-05-14T03:36:51.707Z,12.32
2023-05-14T03:41:53.626Z,12.32
2023-05-14T03:46:55.937Z,12.48
2023-05-14T03:51:59.318Z,11.97
2023-05-14T03:57:01.983Z,12.05
2023-05-14T04:02:04.180Z,11.69
2023-05-14T04:07:05.947Z,11.96
2023-05-14T04:12:08.153Z,11.82
2023-05-14T04:17:10.007Z,12.04
2023-05-14T04:22:11.842Z,12.29
2023-05-14T04:27:22.523Z,12.48
2023-05-14T04:32:24.647Z,12.77
2023-05-14T04:37:26.447Z,12.94
2023-05-14T04:42:28.230Z,11.78
2023-05-14T04:47:30.076Z,12.06
2023-05-14T04:52:33.309Z,10.75
2023-05-14T04:57:35.039Z,10.56
2023-05-14T05:02:36.866Z,9.73
2023-05-14T05:07:38.796Z,8.45
2023-05-14T05:12:41.478Z,9.11
2023-05-14T05:17:43.350Z,10.40
2023-05-14T05:22:46.590Z,11.19
2023-05-14T05:27:48.475Z,11.24
2023-05-14T05:32:50.484Z,11.62
2023-05-14T05:37:52.280Z,12.12
2023-05-14T05:42:54.177Z,12.13
2023-05-14T05:47:56.087Z,9.82
2023-05-14T05:52:59.350Z,10.31
2023-05-14T05:58:01.125Z,10.74
2023-05-14T06:03:03.033Z,9.79
2023-05-14T06:08:05.423Z,10.69
2023-05-14T06:13:07.279Z,10.35
2023-05-14T06:18:09.290Z,8.15
2023-05-14T06:23:12.256Z,7.72
2023-05-14T06:28:14.176Z,10.35
2023-05-14T06:33:15.921Z,10.03
2023-05-14T06:38:17.707Z,8.11
2023-05-14T06:43:19.513Z,7.73
2023-05-14T06:48:21.704Z,7.86
2023-05-14T06:53:23.703Z,7.01
2023-05-14T06:58:25.568Z,7.12
2023-05-14T07:03:27.397Z,8.55
2023-05-14T07:08:29.198Z,10.46
2023-05-14T07:13:30.982Z,9.06
2023-05-14T07:18:32.894Z,10.66
2023-05-14T07:23:41.302Z,11.00
2023-05-14T07:28:43.044Z,10.15
2023-05-14T07:33:44.851Z,10.38
2023-05-14T07:38:46.713Z,10.88
2023-05-14T07:43:48.544Z,7.39
2023-05-14T07:48:50.361Z,7.51
2023-05-14T07:53:52.183Z,9.66
2023-05-14T07:58:53.912Z,8.45
2023-05-14T08:03:55.750Z,8.07
2023-05-14T08:08:57.889Z,8.66
2023-05-14T08:13:59.800Z,9.45
2023-05-14T08:19:01.695Z,8.24
2023-05-14T08:24:03.845Z,9.68
2023-05-14T08:29:05.592Z,8.28
2023-05-14T08:34:07.407Z,8.48
2023-05-14T08:39:09.422Z,7.07
2023-05-14T08:44:15.398Z,8.35
2023-05-14T08:49:46.544Z,7.98
2023-05-14T08:54:50.611Z,8.17
2023-05-14T08:59:55.867Z,9.10
2023-05-14T09:04:59.605Z,8.24
2023-05-14T09:10:03.836Z,7.61
2023-05-14T09:15:06.763Z,7.48
2023-05-14T09:20:09.741Z,7.48
2023-05-14T09:25:14.448Z,9.99
2023-05-14T09:30:16.346Z,8.41
2023-05-14T09:35:23.104Z,10.66
2023-05-14T09:40:25.215Z,11.46
2023-05-14T09:45:27.257Z,10.55
2023-05-14T09:50:29.091Z,9.55
2023-05-14T09:55:31.992Z,10.26
2023-05-14T10:00:34.704Z,8.48
2023-05-14T10:05:37.682Z,8.05
2023-05-14T10:10:39.624Z,7.79
2023-05-14T10:15:42.019Z,9.52
2023-05-14T10:20:48.136Z,8.72
2023-05-14T10:25:50.140Z,10.58
2023-05-14T10:30:51.981Z,9.15
2023-05-14T10:36:07.733Z,10.61
2023-05-14T10:41:15.708Z,11.34
2023-05-14T10:46:18.086Z,9.37
2023-05-14T10:51:22.899Z,8.38
2023-05-14T10:56:24.951Z,9.80
2023-05-14T11:01:28.897Z,11.88
2023-05-14T11:06:31.358Z,10.75
2023-05-14T11:11:33.211Z,11.86
2023-05-14T11:16:35.550Z,10.91
2023-05-14T11:21:37.478Z,11.57
2023-05-14T11:26:39.568Z,13.46
2023-05-14T11:31:41.585Z,12.25
2023-05-14T11:36:43.653Z,12.58
2023-05-14T11:41:46.200Z,14.51
2023-05-14T11:46:57.971Z,15.15
2023-05-14T11:52:04.841Z,14.34
2023-05-14T11:57:15.566Z,13.43
2023-05-14T12:02:19.688Z,11.75
2023-05-14T12:07:21.558Z,8.73
2023-05-14T12:12:23.383Z,10.64
2023-05-14T12:17:25.284Z,10.69
2023-05-14T12:22:29.758Z,11.90
2023-05-14T12:27:31.631Z,12.76
2023-05-14T12:32:34.788Z,10.93
2023-05-14T12:37:37.574Z,11.84
2023-05-14T12:42:39.581Z,13.79
2023-05-14T12:47:41.504Z,15.72
2023-05-14T12:52:43.442Z,14.41
2023-05-14T12:57:45.252Z,14.67
2023-05-14T13:02:47.487Z,12.59
2023-05-14T13:07:49.317Z,12.33
2023-05-14T13:12:52.693Z,13.55
2023-05-14T13:17:54.567Z,10.04
2023-05-14T13:22:57.265Z,12.91
2023-05-14T13:27:59.204Z,11.59
2023-05-14T13:33:01.201Z,14.88
2023-05-14T13:38:03.053Z,14.06
2023-05-14T13:43:04.922Z,15.42
2023-05-14T13:48:06.857Z,16.28
2023-05-14T13:53:08.724Z,14.54
2023-05-14T13:58:10.828Z,15.68
2023-05-14T14:03:12.583Z,16.20
2023-05-14T14:13:23.657Z,17.66
2023-05-14T14:18:25.571Z,17.96
2023-05-14T14:23:27.483Z,14.78
2023-05-14T14:28:29.460Z,11.04
2023-05-14T14:33:31.306Z,14.56
2023-05-14T14:38:33.120Z,15.46
2023-05-14T14:43:34.911Z,17.27
2023-05-14T14:48:41.278Z,17.38
2023-05-14T14:53:43.086Z,17.62
2023-05-14T14:58:45.612Z,18.39
2023-05-14T15:03:48.432Z,18.83
2023-05-14T15:08:50.242Z,18.58
2023-05-14T15:13:52.044Z,14.51
2023-05-14T15:18:54.181Z,16.93
2023-05-14T15:23:56.200Z,13.75
2023-05-14T15:28:59.135Z,13.54
2023-05-14T15:34:01.252Z,15.81
2023-05-14T15:39:03.154Z,16.33
2023-05-14T15:44:05.266Z,16.89
2023-05-14T15:49:07.013Z,17.32
2023-05-14T15:54:08.965Z,17.80
2023-05-14T16:04:12.575Z,17.03
2023-05-14T16:09:14.806Z,17.73
2023-05-14T16:14:16.628Z,17.76
2023-05-14T16:19:18.512Z,18.35
2023-05-14T16:24:20.666Z,16.36
2023-05-14T16:29:22.684Z,16.84
2023-05-14T16:34:24.502Z,13.18
2023-05-14T16:39:26.324Z,15.33
2023-05-14T16:44:28.218Z,15.77
2023-05-14T16:49:30.049Z,17.19
2023-05-14T16:54:31.826Z,15.06
2023-05-14T16:59:33.642Z,16.31
2023-05-14T17:04:38.796Z,16.20
2023-05-14T17:09:40.827Z,14.71
2023-05-14T17:14:42.634Z,15.35
2023-05-14T17:19:46.133Z,15.62
2023-05-14T17:24:47.948Z,16.09
2023-05-14T17:29:52.675Z,15.86
2023-05-14T17:34:54.479Z,14.88
2023-05-14T17:39:56.333Z,12.83
2023-05-14T17:44:58.117Z,13.24
2023-05-14T17:49:59.862Z,13.36
2023-05-14T17:55:01.643Z,13.70
2023-05-14T18:00:04.912Z,14.57
2023-05-14T18:05:12.570Z,13.22
2023-05-14T18:10:14.347Z,13.87
2023-05-14T18:15:16.311Z,13.54
2023-05-14T18:20:18.262Z,14.55
2023-05-14T18:25:20.111Z,14.76
2023-05-14T18:30:22.095Z,14.69
2023-05-14T18:35:23.990Z,14.77
2023-05-14T18:40:25.888Z,14.48
2023-05-14T18:45:27.723Z,14.31
2023-05-14T18:50:29.667Z,14.05
2023-05-14T18:55:31.778Z,14.20
2023-05-14T19:00:33.648Z,13.41
2023-05-14T19:05:35.508Z,12.94
2023-05-14T19:10:37.338Z,12.71
2023-05-14T19:15:39.256Z,10.38
2023-05-14T19:20:42.198Z,12.15
2023-05-14T19:25:44.033Z,12.76
2023-05-14T19:30:46.018Z,12.73
2023-05-14T19:35:47.820Z,13.10
2023-05-14T19:40:51.119Z,13.15
2023-05-14T19:45:52.994Z,12.41
2023-05-14T19:50:54.808Z,12.32
2023-05-14T19:56:00.645Z,12.53
2023-05-14T20:01:02.526Z,12.60
2023-05-14T20:06:04.383Z,13.27
2023-05-14T20:11:06.946Z,13.68
2023-05-14T20:16:08.796Z,13.51
2023-05-14T20:21:10.908Z,13.32
2023-05-14T20:26:12.765Z,12.92
2023-05-14T20:31:14.639Z,12.07
2023-05-14T20:36:16.973Z,12.28
2023-05-14T20:41:18.811Z,12.41
2023-05-14T20:46:20.667Z,12.20
2023-05-14T20:51:22.572Z,13.15
2023-05-14T20:56:24.490Z,12.99
2023-05-14T21:01:26.293Z,12.69
2023-05-14T21:06:28.079Z,12.99
2023-05-14T21:11:29.922Z,12.57
2023-05-14T21:16:32.829Z,13.37
2023-05-14T21:21:34.610Z,13.56
2023-05-14T21:26:37.141Z,13.53
2023-05-14T21:31:39.076Z,13.13
2023-05-14T21:36:40.944Z,13.28
2023-05-14T21:41:42.777Z,13.11
2023-05-14T21:46:44.500Z,13.43
2023-05-14T21:51:46.718Z,13.34
2023-05-14T21:56:48.758Z,13.29
2023-05-14T22:02:06.069Z,13.37
2023-05-14T22:07:08.992Z,12.91
2023-05-14T22:12:11.636Z,12.48
2023-05-14T22:17:13.383Z,12.97
2023-05-14T22:22:15.094Z,11.91
2023-05-14T22:27:17.779Z,11.81
2023-05-14T22:32:19.725Z,11.43
2023-05-14T22:37:21.597Z,11.34
2023-05-14T22:42:23.492Z,11.24
2023-05-14T22:47:25.884Z,11.27
2023-05-14T22:52:27.682Z,11.21
2023-05-14T22:57:29.758Z,11.83
2023-05-14T23:02:31.537Z,11.29
2023-05-14T23:07:33.386Z,11.48
2023-05-14T23:12:35.299Z,11.35
2023-05-14T23:17:38.068Z,10.25
2023-05-14T23:22:40.314Z,10.89
2023-05-14T23:27:42.114Z,10.63
2023-05-14T23:32:44.054Z,11.73
2023-05-14T23:37:47.414Z,12.47
2023-05-14T23:42:49.301Z,12.42
2023-05-14T23:47:51.597Z,12.91
2023-05-14T23:52:54.882Z,13.03
2023-05-14T23:57:56.788Z,12.75
